createdAt,value
2022-09-07T00:01:21.159Z,81.03
2022-09-07T00:03:49.903Z,80.93
2022-09-07T00:06:18.598Z,80.70
2022-09-07T00:08:47.173Z,81.11
2022-09-07T00:14:14.994Z,81.06
2022-09-07T00:16:43.644Z,80.83
2022-09-07T00:19:12.252Z,81.34
2022-09-07T00:21:40.860Z,81.96
2022-09-07T00:24:09.501Z,81.73
2022-09-07T00:26:38.343Z,81.27
2022-09-07T00:29:08.151Z,81.17
2022-09-07T00:31:38.331Z,81.34
2022-09-07T00:34:06.987Z,81.00
2022-09-07T00:36:35.574Z,81.19
2022-09-07T00:39:04.428Z,80.67
2022-09-07T00:41:33.162Z,81.64
2022-09-07T00:44:39.919Z,81.22
2022-09-07T00:47:13.262Z,80.95
2022-09-07T00:49:44.421Z,81.13
2022-09-07T00:52:14.049Z,80.31
2022-09-07T00:54:45.096Z,80.55
2022-09-07T00:57:14.417Z,80.60
2022-09-07T00:59:44.778Z,81.10
2022-09-07T01:02:17.422Z,81.02
2022-09-07T01:04:49.351Z,81.29
2022-09-07T01:07:18.256Z,81.33
2022-09-07T01:09:48.060Z,81.05
2022-09-07T01:12:16.690Z,81.27
2022-09-07T01:14:47.592Z,81.48
2022-09-07T01:17:22.271Z,81.81
2022-09-07T01:20:30.388Z,82.17
2022-09-07T01:23:22.476Z,81.29
2022-09-07T01:26:03.272Z,82.06
2022-09-07T01:28:34.080Z,82.09
2022-09-07T01:31:10.141Z,82.50
2022-09-07T01:33:47.997Z,82.69
2022-09-07T01:36:23.186Z,83.02
2022-09-07T01:38:54.614Z,82.53
2022-09-07T01:41:26.432Z,83.00
2022-09-07T01:44:01.247Z,82.72
2022-09-07T01:46:30.029Z,83.01
2022-09-07T01:49:09.756Z,82.97
2022-09-07T01:51:41.997Z,83.48
2022-09-07T01:54:16.624Z,83.13
2022-09-07T01:56:46.808Z,83.22
2022-09-07T01:59:22.257Z,83.53
2022-09-07T02:01:55.213Z,82.91
2022-09-07T02:04:26.553Z,83.65
2022-09-07T02:06:57.912Z,83.67
2022-09-07T02:09:32.534Z,83.67
2022-09-07T02:12:03.552Z,83.49
2022-09-07T02:14:37.506Z,83.43
2022-09-07T02:17:12.370Z,83.17
2022-09-07T02:19:42.679Z,82.81
2022-09-07T02:22:14.815Z,83.04
2022-09-07T02:24:45.809Z,82.94
2022-09-07T02:27:16.719Z,83.17
2022-09-07T02:29:47.218Z,83.47
2022-09-07T02:32:15.861Z,83.58
2022-09-07T02:34:44.624Z,83.49
2022-09-07T02:37:15.709Z,83.46
2022-09-07T02:39:44.725Z,83.12
2022-09-07T02:42:13.432Z,83.05
2022-09-07T02:44:42.938Z,83.28
2022-09-07T02:47:33.347Z,82.89
2022-09-07T02:50:22.420Z,82.92
2022-09-07T02:52:59.972Z,83.08
2022-09-07T02:55:34.589Z,83.29
2022-09-07T02:58:12.931Z,83.17
2022-09-07T03:00:46.568Z,83.21
2022-09-07T03:03:22.915Z,82.75
2022-09-07T03:05:53.852Z,83.24
2022-09-07T03:08:26.014Z,82.98
2022-09-07T03:10:54.952Z,82.47
2022-09-07T03:13:24.450Z,83.02
2022-09-07T03:15:55.882Z,82.44
2022-09-07T03:18:27.434Z,83.41
2022-09-07T03:20:56.415Z,83.15
2022-09-07T03:23:25.252Z,83.35
2022-09-07T03:25:54.397Z,83.01
2022-09-07T03:28:25.454Z,82.73
2022-09-07T03:30:54.157Z,82.68
2022-09-07T03:33:22.809Z,82.46
2022-09-07T03:36:01.286Z,82.95
2022-09-07T03:38:31.799Z,82.83
2022-09-07T03:41:01.713Z,82.95
2022-09-07T03:43:31.186Z,82.60
2022-09-07T03:46:00.382Z,82.60
2022-09-07T03:48:31.325Z,82.78
2022-09-07T03:51:03.830Z,82.90
2022-09-07T03:53:32.949Z,82.19
2022-09-07T03:56:03.170Z,83.04
2022-09-07T03:58:33.154Z,82.46
2022-09-07T04:01:02.765Z,82.68
2022-09-07T04:03:31.417Z,82.68
2022-09-07T04:06:01.675Z,82.90
2022-09-07T04:08:31.967Z,83.35
2022-09-07T04:11:01.612Z,83.14
2022-09-07T04:13:31.357Z,82.94
2022-09-07T04:15:59.999Z,82.62
2022-09-07T04:18:28.619Z,82.94
2022-09-07T04:21:01.706Z,82.21
2022-09-07T04:23:30.340Z,82.22
2022-09-07T04:25:58.935Z,81.63
2022-09-07T04:28:27.620Z,81.72
2022-09-07T04:30:56.290Z,81.55
2022-09-07T04:33:24.987Z,81.07
2022-09-07T04:35:53.664Z,81.02
2022-09-07T04:38:23.774Z,80.31
2022-09-07T04:40:52.395Z,79.62
2022-09-07T04:43:21.006Z,78.36
2022-09-07T04:45:49.676Z,78.12
2022-09-07T04:48:18.320Z,77.68
2022-09-07T04:50:47.025Z,77.38
2022-09-07T04:53:15.641Z,76.94
2022-09-07T04:55:45.668Z,76.58
2022-09-07T04:58:14.282Z,76.66
2022-09-07T05:00:43.144Z,76.57
2022-09-07T05:03:11.764Z,76.61
2022-09-07T05:05:40.482Z,76.59
2022-09-07T05:08:09.185Z,75.77
2022-09-07T05:10:37.872Z,76.05
2022-09-07T05:13:07.985Z,75.80
2022-09-07T05:15:36.589Z,75.63
2022-09-07T05:18:05.653Z,76.33
2022-09-07T05:20:34.342Z,76.90
2022-09-07T05:23:02.953Z,76.63
2022-09-07T05:25:32.891Z,77.08
2022-09-07T05:28:01.592Z,77.34
2022-09-07T05:33:20.675Z,77.01
2022-09-07T05:35:57.971Z,76.68
2022-09-07T05:38:26.858Z,76.32
2022-09-07T05:40:55.550Z,76.16
2022-09-07T05:43:24.140Z,75.45
2022-09-07T05:45:55.955Z,75.52
2022-09-07T05:48:24.656Z,75.99
2022-09-07T05:50:54.291Z,76.56
2022-09-07T05:53:23.274Z,76.72
2022-09-07T05:55:51.999Z,76.20
2022-09-07T05:58:20.871Z,75.33
2022-09-07T06:00:49.496Z,74.44
2022-09-07T06:03:19.660Z,74.24
2022-09-07T06:05:48.424Z,74.59
2022-09-07T06:08:17.019Z,74.64
2022-09-07T06:10:45.836Z,74.34
2022-09-07T06:13:14.462Z,74.09
2022-09-07T06:15:43.390Z,74.24
2022-09-07T06:18:11.986Z,73.43
2022-09-07T06:20:42.218Z,72.78
2022-09-07T06:23:10.809Z,72.99
2022-09-07T06:25:39.403Z,72.17
2022-09-07T06:28:08.326Z,71.51
2022-09-07T06:30:37.939Z,70.77
2022-09-07T06:33:06.546Z,69.81
2022-09-07T06:35:35.208Z,69.44
2022-09-07T06:38:05.242Z,68.73
2022-09-07T06:40:35.269Z,68.53
2022-09-07T06:43:03.867Z,68.20
2022-09-07T06:45:32.526Z,68.15
2022-09-07T06:48:01.191Z,67.47
2022-09-07T06:50:29.899Z,67.18
2022-09-07T06:55:59.352Z,67.47
2022-09-07T06:58:28.835Z,67.64
2022-09-07T07:00:59.009Z,68.05
2022-09-07T07:03:30.136Z,67.49
2022-09-07T07:05:58.924Z,67.65
2022-09-07T07:08:30.136Z,67.85
2022-09-07T07:11:03.076Z,68.09
2022-09-07T07:13:31.810Z,67.66
2022-09-07T07:16:05.049Z,66.28
2022-09-07T07:18:34.226Z,66.69
2022-09-07T07:21:03.880Z,66.76
2022-09-07T07:23:35.648Z,65.35
2022-09-07T07:26:04.327Z,65.87
2022-09-07T07:31:23.773Z,65.35
2022-09-07T07:33:54.234Z,65.75
2022-09-07T07:36:24.147Z,65.55
2022-09-07T07:38:59.510Z,64.96
2022-09-07T07:44:20.584Z,64.20
2022-09-07T07:46:50.453Z,63.68
2022-09-07T07:49:19.324Z,62.33
2022-09-07T07:54:38.162Z,61.61
2022-09-07T07:57:07.130Z,61.58
2022-09-07T07:59:35.877Z,61.82
2022-09-07T08:02:05.901Z,60.25
2022-09-07T08:04:35.267Z,60.93
2022-09-07T08:07:09.661Z,61.25
2022-09-07T08:09:41.609Z,61.53
2022-09-07T08:12:11.491Z,62.07
2022-09-07T08:14:42.439Z,61.49
2022-09-07T08:17:12.052Z,61.09
2022-09-07T08:19:41.146Z,61.75
2022-09-07T08:22:10.767Z,60.96
2022-09-07T08:24:41.318Z,59.98
2022-09-07T08:27:09.988Z,60.25
2022-09-07T08:29:38.576Z,58.14
2022-09-07T08:32:07.561Z,57.89
2022-09-07T08:34:38.813Z,56.96
2022-09-07T08:37:09.751Z,56.35
2022-09-07T08:39:43.345Z,56.87
2022-09-07T08:42:26.083Z,56.94
2022-09-07T08:44:58.602Z,57.42
2022-09-07T08:47:31.039Z,57.47
2022-09-07T08:50:03.169Z,56.88
2022-09-07T08:52:42.665Z,57.08
2022-09-07T08:55:16.827Z,56.97
2022-09-07T08:57:49.188Z,56.31
2022-09-07T09:00:19.128Z,55.36
2022-09-07T09:03:28.691Z,54.11
2022-09-07T09:05:43.406Z,53.40
2022-09-07T09:08:22.420Z,51.51
2022-09-07T09:11:04.001Z,51.40
2022-09-07T09:13:48.329Z,53.03
2022-09-07T09:16:23.145Z,52.56
2022-09-07T09:19:01.705Z,51.85
2022-09-07T09:21:30.356Z,50.78
2022-09-07T09:24:03.620Z,49.98
2022-09-07T09:26:35.612Z,49.58
2022-09-07T09:29:14.410Z,49.79
2022-09-07T09:31:43.290Z,49.41
2022-09-07T09:34:13.667Z,49.57
2022-09-07T09:36:47.414Z,49.85
2022-09-07T09:39:32.053Z,49.66
2022-09-07T09:42:14.620Z,48.93
2022-09-07T09:44:44.032Z,48.95
2022-09-07T09:47:30.155Z,49.20
2022-09-07T09:50:01.073Z,49.77
2022-09-07T09:52:36.988Z,50.46
2022-09-07T09:55:34.344Z,50.45
2022-09-07T10:03:56.741Z,52.55
2022-09-07T10:06:26.912Z,53.05
2022-09-07T10:08:58.643Z,53.34
2022-09-07T10:14:36.341Z,53.52
2022-09-07T10:17:13.835Z,53.08
2022-09-07T10:19:43.823Z,52.97
2022-09-07T10:22:24.166Z,53.55
2022-09-07T10:24:52.824Z,53.72
2022-09-07T10:27:34.362Z,54.60
2022-09-07T10:30:13.961Z,55.11
2022-09-07T10:32:51.450Z,55.95
2022-09-07T10:35:25.466Z,57.07
2022-09-07T10:38:12.338Z,57.45
2022-09-07T10:40:44.390Z,58.82
2022-09-07T10:43:21.671Z,59.88
2022-09-07T10:46:56.941Z,61.90
2022-09-07T10:49:31.555Z,63.02
2022-09-07T10:52:07.769Z,64.21
2022-09-07T10:54:42.250Z,65.98
2022-09-07T10:57:32.651Z,66.52
2022-09-07T11:03:25.617Z,70.08
2022-09-07T11:06:06.582Z,71.37
2022-09-07T11:14:25.464Z,74.93
2022-09-07T11:16:56.419Z,74.98
2022-09-07T11:19:37.490Z,76.38
2022-09-07T11:22:18.932Z,76.21
2022-09-07T11:25:29.179Z,76.53
2022-09-07T11:27:43.682Z,75.77
2022-09-07T11:30:20.015Z,76.48
2022-09-07T11:32:55.248Z,76.74
2022-09-07T11:35:39.666Z,76.80
2022-09-07T11:38:16.237Z,76.10
2022-09-07T11:41:01.536Z,76.45
2022-09-07T11:43:32.333Z,76.71
2022-09-07T11:46:05.152Z,76.29
2022-09-07T11:48:38.203Z,76.21
2022-09-07T11:51:10.818Z,75.55
2022-09-07T11:53:45.245Z,76.23
2022-09-07T11:56:19.241Z,76.99
2022-09-07T11:59:03.520Z,75.95
2022-09-07T12:01:38.352Z,76.07
2022-09-07T12:04:34.525Z,76.99
2022-09-07T12:07:32.463Z,77.20
2022-09-07T12:10:33.096Z,77.54
2022-09-07T12:13:18.390Z,76.80
2022-09-07T12:15:54.263Z,76.88
2022-09-07T12:18:35.535Z,77.33
2022-09-07T12:21:04.086Z,78.44
2022-09-07T12:23:33.387Z,77.92
2022-09-07T12:26:44.216Z,77.38
2022-09-07T12:29:25.966Z,77.73
2022-09-07T12:32:07.316Z,78.48
2022-09-07T12:34:52.416Z,78.44
2022-09-07T12:37:54.515Z,79.23
2022-09-07T12:40:58.000Z,79.24
2022-09-07T12:43:37.721Z,79.36
2022-09-07T12:46:20.180Z,79.80
2022-09-07T12:48:55.280Z,80.32
2022-09-07T12:54:29.190Z,80.65
2022-09-07T12:59:58.097Z,80.80
2022-09-07T13:02:53.663Z,81.29
2022-09-07T13:05:34.446Z,81.83
2022-09-07T13:08:53.648Z,82.10
2022-09-07T13:11:33.211Z,82.75
2022-09-07T13:14:05.197Z,83.10
2022-09-07T13:20:03.125Z,83.30
2022-09-07T13:22:58.664Z,82.88
2022-09-07T13:25:57.776Z,82.62
2022-09-07T13:28:42.128Z,83.06
2022-09-07T13:31:34.951Z,83.26
2022-09-07T13:34:49.774Z,83.20
2022-09-07T13:37:21.295Z,83.93
2022-09-07T13:39:53.803Z,84.13
2022-09-07T13:42:25.954Z,84.35
2022-09-07T13:44:57.109Z,84.84
2022-09-07T13:47:36.501Z,84.84
2022-09-07T13:50:14.675Z,85.61
2022-09-07T13:52:53.828Z,85.59
2022-09-07T13:55:36.848Z,86.11
2022-09-07T13:58:14.157Z,86.57
2022-09-07T14:00:53.993Z,86.58
2022-09-07T14:03:24.864Z,86.23
2022-09-07T14:06:18.367Z,86.43
2022-09-07T14:08:49.455Z,86.38
2022-09-07T14:11:24.643Z,86.75
2022-09-07T14:14:15.019Z,86.99
2022-09-07T14:16:46.011Z,86.60
2022-09-07T14:19:19.228Z,86.49
2022-09-07T14:21:59.025Z,86.19
2022-09-07T14:24:34.436Z,86.41
2022-09-07T14:27:05.978Z,86.87
2022-09-07T14:29:36.412Z,86.56
2022-09-07T14:32:05.820Z,86.30
2022-09-07T14:34:36.620Z,86.57
2022-09-07T14:37:07.222Z,86.69
2022-09-07T14:39:41.438Z,86.43
2022-09-07T14:42:15.131Z,86.47
2022-09-07T14:44:46.239Z,86.62
2022-09-07T14:47:26.400Z,86.76
2022-09-07T14:49:56.880Z,86.28
2022-09-07T14:52:32.525Z,86.66
2022-09-07T14:55:02.154Z,86.62
2022-09-07T14:57:33.649Z,87.02
2022-09-07T15:00:20.883Z,86.38
2022-09-07T15:02:49.854Z,86.12
2022-09-07T15:05:22.637Z,86.35
2022-09-07T15:07:53.068Z,86.14
2022-09-07T15:10:37.254Z,85.96
2022-09-07T15:13:29.261Z,85.40
2022-09-07T15:16:03.287Z,86.16
2022-09-07T15:18:57.475Z,85.63
2022-09-07T15:21:27.940Z,86.32
2022-09-07T15:23:58.785Z,85.56
2022-09-07T15:29:32.094Z,85.52
2022-09-07T15:32:04.734Z,85.75
2022-09-07T15:34:34.658Z,85.20
2022-09-07T15:38:01.054Z,85.64
2022-09-07T15:39:56.300Z,85.60
2022-09-07T15:45:17.442Z,85.40
2022-09-07T15:47:51.210Z,86.08
2022-09-07T15:50:23.800Z,85.57
2022-09-07T15:52:52.431Z,86.27
2022-09-07T15:55:21.622Z,85.98
2022-09-07T15:57:56.786Z,85.52
2022-09-07T16:00:31.264Z,85.92
2022-09-07T16:03:08.486Z,86.08
2022-09-07T16:05:39.925Z,85.35
2022-09-07T16:08:27.586Z,85.67
2022-09-07T16:11:10.118Z,85.22
2022-09-07T16:13:41.361Z,85.36
2022-09-07T16:16:15.666Z,85.11
2022-09-07T16:18:47.276Z,85.29
2022-09-07T16:21:16.837Z,85.20
2022-09-07T16:23:48.935Z,85.53
2022-09-07T16:26:20.211Z,85.60
2022-09-07T16:28:51.392Z,85.27
2022-09-07T16:31:23.753Z,85.18
2022-09-07T16:33:54.856Z,85.23
2022-09-07T16:36:24.826Z,85.74
2022-09-07T16:38:56.853Z,86.04
2022-09-07T16:41:28.587Z,86.35
2022-09-07T16:43:57.981Z,86.98
2022-09-07T16:46:31.740Z,86.61
2022-09-07T16:49:01.447Z,86.09
2022-09-07T16:51:30.439Z,86.47
2022-09-07T16:54:02.535Z,86.42
2022-09-07T16:56:38.902Z,86.37
2022-09-07T16:59:10.910Z,86.75
2022-09-07T17:01:41.445Z,86.12
2022-09-07T17:04:11.764Z,86.55
2022-09-07T17:06:45.061Z,85.92
2022-09-07T17:09:17.251Z,86.09
2022-09-07T17:11:46.875Z,86.37
2022-09-07T17:14:16.205Z,85.75
2022-09-07T17:16:46.430Z,86.33
2022-09-07T17:19:32.220Z,85.17
2022-09-07T17:22:02.334Z,84.61
2022-09-07T17:24:32.749Z,84.13
2022-09-07T17:27:02.846Z,84.57
2022-09-07T17:29:37.402Z,83.91
2022-09-07T17:32:25.154Z,82.54
2022-09-07T17:34:56.274Z,83.26
2022-09-07T17:37:26.637Z,83.36
2022-09-07T17:39:55.310Z,83.29
2022-09-07T17:45:20.257Z,83.56
2022-09-07T17:47:51.068Z,84.14
2022-09-07T17:50:22.360Z,84.49
2022-09-07T17:52:54.188Z,84.79
2022-09-07T17:55:22.829Z,84.85
2022-09-07T17:57:54.771Z,85.13
2022-09-07T18:00:23.534Z,85.14
2022-09-07T18:02:54.498Z,85.23
2022-09-07T18:05:23.757Z,85.13
2022-09-07T18:07:53.020Z,85.12
2022-09-07T18:10:23.344Z,85.77
2022-09-07T18:12:54.927Z,85.74
2022-09-07T18:15:23.522Z,85.32
2022-09-07T18:17:53.816Z,85.65
2022-09-07T18:20:26.720Z,85.78
2022-09-07T18:22:56.093Z,86.27
2022-09-07T18:25:28.570Z,86.43
2022-09-07T18:30:47.007Z,86.47
2022-09-07T18:33:18.704Z,86.49
2022-09-07T18:35:50.670Z,87.04
2022-09-07T18:38:20.430Z,87.14
2022-09-07T18:40:51.102Z,87.11
2022-09-07T18:43:25.340Z,87.38
2022-09-07T18:45:57.559Z,87.66
2022-09-07T18:48:28.116Z,87.83
2022-09-07T18:50:57.615Z,88.41
2022-09-07T18:53:29.632Z,88.20
2022-09-07T18:56:06.355Z,88.65
2022-09-07T18:58:36.150Z,89.00
2022-09-07T19:01:07.468Z,89.19
2022-09-07T19:03:38.156Z,89.43
2022-09-07T19:06:09.233Z,89.22
2022-09-07T19:08:39.573Z,89.43
2022-09-07T19:11:10.343Z,88.88
2022-09-07T19:13:39.449Z,89.43
2022-09-07T19:16:12.739Z,89.26
2022-09-07T19:18:51.630Z,89.14
2022-09-07T19:21:25.333Z,89.76
2022-09-07T19:23:56.981Z,89.84
2022-09-07T19:26:26.874Z,89.92
2022-09-07T19:28:57.468Z,89.91
2022-09-07T19:34:14.019Z,90.03
2022-09-07T19:36:45.392Z,89.96
2022-09-07T19:39:15.328Z,89.79
2022-09-07T19:41:48.415Z,89.78
2022-09-07T19:44:19.582Z,90.19
2022-09-07T19:46:48.771Z,89.85
2022-09-07T19:49:21.982Z,89.84
2022-09-07T19:51:53.071Z,89.87
2022-09-07T19:54:23.812Z,89.31
2022-09-07T19:56:52.385Z,89.10
2022-09-07T19:59:20.989Z,89.23
2022-09-07T20:01:51.395Z,89.68
2022-09-07T20:04:25.017Z,89.01
2022-09-07T20:06:57.076Z,89.10
2022-09-07T20:09:28.269Z,89.18
2022-09-07T20:11:56.897Z,88.84
2022-09-07T20:14:25.603Z,88.67
2022-09-07T20:16:54.301Z,88.67
2022-09-07T20:19:27.560Z,89.25
2022-09-07T20:21:56.314Z,89.03
2022-09-07T20:24:24.999Z,89.19
2022-09-07T20:26:53.554Z,89.41
2022-09-07T20:29:29.457Z,89.62
2022-09-07T20:31:59.537Z,89.81
2022-09-07T20:34:30.133Z,89.62
2022-09-07T20:36:58.811Z,89.35
2022-09-07T20:39:27.417Z,89.57
2022-09-07T20:41:56.078Z,89.53
2022-09-07T20:44:24.709Z,89.63
2022-09-07T20:46:53.483Z,89.61
2022-09-07T20:49:22.095Z,89.76
2022-09-07T20:51:52.165Z,89.63
2022-09-07T20:54:20.696Z,89.52
2022-09-07T20:56:49.338Z,89.26
2022-09-07T20:59:18.066Z,89.38
2022-09-07T21:06:07.993Z,88.47
2022-09-07T21:08:38.807Z,88.41
2022-09-07T21:11:11.924Z,88.84
2022-09-07T21:13:41.030Z,88.40
2022-09-07T21:16:11.119Z,88.08
2022-09-07T21:18:41.914Z,87.96
2022-09-07T21:21:19.707Z,88.20
2022-09-07T21:23:50.974Z,87.86
2022-09-07T21:26:22.163Z,88.00
2022-09-07T21:28:56.067Z,87.90
2022-09-07T21:31:25.189Z,87.73
2022-09-07T21:33:56.027Z,87.94
2022-09-07T21:36:24.824Z,87.82
2022-09-07T21:38:55.111Z,87.47
2022-09-07T21:41:25.151Z,87.50
2022-09-07T21:43:56.751Z,87.69
2022-09-07T21:46:25.715Z,87.51
2022-09-07T21:48:55.577Z,87.91
2022-09-07T21:51:24.885Z,87.84
2022-09-07T21:53:55.858Z,87.54
2022-09-07T21:56:24.746Z,87.98
2022-09-07T21:58:57.123Z,87.95
2022-09-07T22:01:26.816Z,87.86
2022-09-07T22:03:56.991Z,88.10
2022-09-07T22:06:27.400Z,87.91
2022-09-07T22:08:58.821Z,87.99
2022-09-07T22:11:30.076Z,88.01
2022-09-07T22:14:00.564Z,87.80
2022-09-07T22:16:29.491Z,88.10
2022-09-07T22:18:58.292Z,88.10
2022-09-07T22:21:28.663Z,88.16
2022-09-07T22:23:59.913Z,88.18
2022-09-07T22:26:30.629Z,88.34
2022-09-07T22:29:00.195Z,87.88
2022-09-07T22:31:30.688Z,87.73
2022-09-07T22:34:01.946Z,87.89
2022-09-07T22:36:32.543Z,87.85
2022-09-07T22:39:06.071Z,87.73
2022-09-07T22:41:38.551Z,87.95
2022-09-07T22:44:09.550Z,87.86
2022-09-07T22:46:41.003Z,87.59
2022-09-07T22:49:10.386Z,87.69
2022-09-07T22:51:39.086Z,87.65
2022-09-07T22:54:09.516Z,87.69
2022-09-07T22:56:38.519Z,87.97
2022-09-07T22:59:08.992Z,87.81
2022-09-07T23:01:38.374Z,87.87
2022-09-07T23:04:07.835Z,87.26
2022-09-07T23:06:38.230Z,87.16
2022-09-07T23:09:09.749Z,86.34
2022-09-07T23:11:38.799Z,86.58
2022-09-07T23:14:09.325Z,87.55
2022-09-07T23:16:37.989Z,87.13
2022-09-07T23:19:07.075Z,87.08
2022-09-07T23:21:35.723Z,87.32
2022-09-07T23:24:04.719Z,87.40
2022-09-07T23:26:35.129Z,87.77
2022-09-07T23:29:06.264Z,87.05
2022-09-07T23:31:37.127Z,87.33
2022-09-07T23:34:06.072Z,87.18
2022-09-07T23:36:34.800Z,87.04
2022-09-07T23:39:03.452Z,87.57
2022-09-07T23:41:33.198Z,87.46
2022-09-07T23:44:03.611Z,87.41
2022-09-07T23:46:32.216Z,87.79
2022-09-07T23:49:00.898Z,87.14
2022-09-07T23:51:29.671Z,87.44
2022-09-07T23:53:58.208Z,87.20
2022-09-07T23:56:26.963Z,86.87
2022-09-07T23:58:55.572Z,86.73
